Terminal Aerodrome Forecast
Issued by NWS Goodland, KS

Home | Current Version | Previous Version | Text Only | Print | Product List | Glossary Off
Versions: 1 2 3 4 5 6 7 8 9 10 11 12 13 14 15 16 17 18 19 20

000
FTUS43 KGLD 021737
TAFGLD
TAF
KGLD 021737Z 0218/0318 VRB06KT P6SM SCT100
     FM031300 VRB05KT P6SM VCTS BKN060CB
     FM031600 VRB05KT P6SM BKN050=

USA.gov is the U.S. government's official web portal to all federal, state and local government web resources and services.